Time;durP1;ratioP1;P1;durP2;ratioP2;P2;SDS_P1;SDS_P2;PMS_P1;PMS_P2;Temp;Humidity;BMP_temperature;BMP_pressure;BME280_temperature;BME280_humidity;BME280_pressure;Samples;Min_cycle;Max_cycle;Signal;HPM_P1;HPM_P2
2022/11/02 00:00:30;;;;;;;29.77;17.37;;;;;;;7.15;57.76;99775.54;1681418;83;21160;-80
2022/11/02 00:02:56;;;;;;;30.17;17.62;;;;;;;7.11;57.82;99774.99;1679810;83;21033;-80
2022/11/02 00:05:23;;;;;;;29.15;17.27;;;;;;;7.11;57.93;99774.14;1685278;83;21062;-82
2022/11/02 00:07:52;;;;;;;31.70;17.60;;;;;;;7.09;57.94;99772.98;1685607;84;21072;-79
2022/11/02 00:10:20;;;;;;;29.07;17.40;;;;;;;7.09;57.94;99771.66;1679989;84;21061;-79
2022/11/02 00:12:47;;;;;;;31.77;18.20;;;;;;;7.08;57.93;99765.53;1672383;83;21216;-78
2022/11/02 00:15:16;;;;;;;30.32;17.30;;;;;;;7.08;58.01;99764.70;1682472;83;21242;-80
2022/11/02 00:17:48;;;;;;;26.80;16.55;;;;;;;7.08;57.95;99763.38;1698182;82;21061;-81
2022/11/02 00:20:16;;;;;;;30.72;18.25;;;;;;;7.08;57.94;99765.53;1693863;82;21010;-79
2022/11/02 00:22:44;;;;;;;30.12;17.65;;;;;;;7.09;57.88;99759.78;1697000;82;21011;-80
2022/11/02 00:25:11;;;;;;;27.22;17.62;;;;;;;7.09;57.99;99754.49;1695708;82;21488;-81
2022/11/02 00:27:38;;;;;;;27.75;17.48;;;;;;;7.08;58.17;99750.17;1686336;82;21080;-81
2022/11/02 00:30:07;;;;;;;28.35;17.35;;;;;;;7.08;58.08;99746.21;1688778;82;21589;-80
2022/11/02 00:32:34;;;;;;;28.55;19.02;;;;;;;7.08;58.13;99743.07;1698878;82;20987;-81
2022/11/02 00:35:02;;;;;;;27.13;18.30;;;;;;;7.07;58.16;99740.11;1692153;82;21506;-81
2022/11/02 00:37:29;;;;;;;27.10;17.42;;;;;;;7.07;58.13;99737.96;1692708;82;21281;-80
2022/11/02 00:39:56;;;;;;;29.30;17.73;;;;;;;7.07;58.10;99746.70;1695772;82;21050;-78
2022/11/02 00:42:22;;;;;;;26.27;17.40;;;;;;;7.08;58.05;99748.36;1659429;85;21490;-81
2022/11/02 00:44:50;;;;;;;30.60;17.52;;;;;;;7.09;58.01;99751.36;1680982;83;21426;-79
2022/11/02 00:47:18;;;;;;;28.80;16.87;;;;;;;7.11;57.90;99752.54;1644305;84;21089;-81
2022/11/02 00:49:45;;;;;;;28.75;17.55;;;;;;;7.13;57.95;99745.77;1687060;83;21295;-82
2022/11/02 00:52:11;;;;;;;31.55;18.10;;;;;;;7.14;58.01;99747.44;1688343;84;22428;-79
2022/11/02 00:54:39;;;;;;;28.52;17.42;;;;;;;7.15;58.01;99747.30;1680359;83;21097;-81
2022/11/02 00:57:06;;;;;;;26.40;16.30;;;;;;;7.17;58.05;99744.52;1690259;83;20997;-78
2022/11/02 00:59:34;;;;;;;27.05;17.32;;;;;;;7.16;58.01;99738.38;1694002;83;21485;-80
2022/11/02 01:02:01;;;;;;;27.90;17.50;;;;;;;7.16;58.08;99737.06;1673060;83;21489;-78
2022/11/02 01:04:27;;;;;;;25.90;16.80;;;;;;;7.16;58.02;99738.88;1690362;83;21046;-79
2022/11/02 01:06:54;;;;;;;32.50;18.32;;;;;;;7.14;58.13;99732.41;1682331;83;21045;-76
2022/11/02 01:09:22;;;;;;;27.25;17.73;;;;;;;7.15;58.12;99739.88;1671109;85;21488;-78
2022/11/02 01:11:50;;;;;;;26.90;17.80;;;;;;;7.14;58.17;99748.77;1711025;82;21034;-80
2022/11/02 01:14:16;;;;;;;26.65;17.90;;;;;;;7.13;58.17;99750.58;1711504;82;21149;-81
2022/11/02 01:16:45;;;;;;;26.27;17.40;;;;;;;7.13;58.09;99746.62;1707751;83;22174;-82
2022/11/02 01:19:12;;;;;;;29.05;18.00;;;;;;;7.15;58.03;99744.66;1701986;82;21089;-81
2022/11/02 01:21:38;;;;;;;30.60;18.75;;;;;;;7.16;58.01;99740.20;1697008;83;21489;-81
2022/11/02 01:24:05;;;;;;;28.95;19.05;;;;;;;7.17;58.07;99736.09;1695203;82;21037;-81
2022/11/02 01:26:32;;;;;;;27.48;18.23;;;;;;;7.15;58.17;99731.45;1694594;82;21147;-81
2022/11/02 01:29:00;;;;;;;31.50;18.75;;;;;;;7.15;58.23;99736.73;1666703;85;21073;-82
2022/11/02 01:31:26;;;;;;;33.48;18.62;;;;;;;7.15;58.35;99737.23;1708156;83;20993;-83
2022/11/02 01:33:54;;;;;;;32.88;20.68;;;;;;;7.11;58.67;99727.44;1678766;83;21076;-81
2022/11/02 01:36:20;;;;;;;32.60;19.37;;;;;;;7.08;58.81;99727.22;1696599;82;21022;-80
2022/11/02 01:38:48;;;;;;;27.58;17.57;;;;;;;7.04;58.83;99725.85;1688739;82;21251;-83
2022/11/02 01:41:16;;;;;;;26.85;18.02;;;;;;;7.01;58.91;99724.84;1685467;84;21005;-83
2022/11/02 01:43:48;;;;;;;33.88;20.08;;;;;;;7.02;58.87;99723.84;1672189;84;21069;-83
2022/11/02 01:46:21;;;;;;;28.55;19.02;;;;;;;6.99;58.89;99715.38;1684002;84;21024;-81
2022/11/02 01:48:53;;;;;;;33.55;18.50;;;;;;;7.01;58.99;99719.56;1658396;85;21030;-82
2022/11/02 01:51:30;;;;;;;29.82;19.67;;;;;;;7.01;59.03;99713.42;1675525;83;21170;-80
2022/11/02 01:54:01;;;;;;;31.77;19.35;;;;;;;7.02;59.28;99716.42;1682468;83;21055;-80
2022/11/02 01:56:30;;;;;;;29.23;19.30;;;;;;;7.00;59.66;99715.73;1658640;85;21070;-81
2022/11/02 01:59:03;;;;;;;32.40;18.87;;;;;;;6.98;59.88;99713.73;1690961;84;21049;-83
2022/11/02 02:01:30;;;;;;;31.77;18.67;;;;;;;6.95;59.87;99707.41;1671496;83;21057;-83
2022/11/02 02:03:57;;;;;;;26.90;18.45;;;;;;;6.92;60.10;99705.08;1683360;84;21225;-81
2022/11/02 02:06:25;;;;;;;26.93;18.50;;;;;;;6.88;60.00;99711.95;1705685;84;21015;-79
2022/11/02 02:08:52;;;;;;;27.15;16.35;;;;;;;6.87;59.86;99715.55;1688582;82;21110;-80
2022/11/02 02:11:36;;;;;;;27.37;17.30;;;;;;;6.86;60.03;99711.27;1697316;82;21019;-80
2022/11/02 02:14:16;;;;;;;31.62;18.77;;;;;;;6.86;60.01;99706.48;1682307;82;21045;-79
2022/11/02 02:17:18;;;;;;;27.58;17.62;;;;;;;6.86;60.03;99704.67;1688295;82;21194;-78
2022/11/02 02:20:12;;;;;;;27.52;17.82;;;;;;;6.85;59.99;99699.03;1682974;82;21097;-80
2022/11/02 02:23:06;;;;;;;29.07;19.15;;;;;;;6.85;60.00;99702.16;1682368;82;21018;-81
2022/11/02 02:25:59;;;;;;;32.90;18.98;;;;;;;6.81;59.98;99695.52;1672363;83;21018;-79
2022/11/02 02:28:34;;;;;;;33.33;20.17;;;;;;;6.81;60.12;99695.02;1670839;83;21096;-83
2022/11/02 02:31:24;;;;;;;30.95;21.70;;;;;;;6.80;60.07;99691.20;1701145;82;21206;-81
2022/11/02 02:34:00;;;;;;;35.95;24.30;;;;;;;6.79;60.11;99694.33;1697331;82;21007;-84
2022/11/02 02:36:36;;;;;;;35.17;20.60;;;;;;;6.75;60.07;99687.69;1695767;82;21487;-81
2022/11/02 02:39:07;;;;;;;36.95;23.32;;;;;;;6.72;59.96;99679.22;1686782;84;21111;-80
2022/11/02 02:41:42;;;;;;;32.28;22.65;;;;;;;6.70;60.02;99680.67;1682317;83;21053;-79
2022/11/02 02:44:16;;;;;;;38.28;23.65;;;;;;;6.67;60.11;99679.16;1672478;84;21528;-80
2022/11/02 02:47:05;;;;;;;;;;;;;;;6.66;59.94;99676.66;1672482;84;20994;-83
2022/11/02 02:49:46;;;;;;;38.75;25.15;;;;;;;6.67;60.04;99680.98;1697276;83;20235;-81
2022/11/02 02:52:12;;;;;;;44.58;30.90;;;;;;;6.65;60.04;99671.88;1658479;85;21070;-81
2022/11/02 02:54:42;;;;;;;41.35;29.42;;;;;;;6.65;60.16;99678.97;1669800;83;21001;-81
2022/11/02 02:57:17;;;;;;;35.48;24.77;;;;;;;6.65;60.32;99675.02;1668446;84;21103;-80
2022/11/02 02:59:50;;;;;;;33.30;21.68;;;;;;;6.65;60.39;99679.80;1679511;83;21016;-80
2022/11/02 03:02:33;;;;;;;31.20;21.10;;;;;;;6.62;61.23;99680.08;1684357;83;21109;-80
2022/11/02 03:04:59;;;;;;;34.85;20.50;;;;;;;6.58;61.61;99683.98;1651730;84;21100;-78
2022/11/02 03:07:30;;;;;;;32.42;20.15;;;;;;;6.46;61.92;99678.05;1674992;84;21049;-79
2022/11/02 03:10:17;;;;;;;33.15;20.88;;;;;;;6.33;62.22;99685.44;1642786;85;22674;-81
2022/11/02 03:13:10;;;;;;;30.88;20.52;;;;;;;6.24;62.60;99685.81;1682021;84;21030;-80
2022/11/02 03:15:44;;;;;;;34.25;22.27;;;;;;;6.16;62.97;99686.16;1692271;83;21539;-78
2022/11/02 03:18:35;;;;;;;35.52;24.40;;;;;;;6.04;63.29;99688.95;1692952;84;21071;-79
2022/11/02 03:21:25;;;;;;;36.88;23.55;;;;;;;5.94;63.58;99689.91;1700240;82;20975;-77
2022/11/02 03:24:06;;;;;;;34.80;22.48;;;;;;;5.83;63.94;99694.83;1691744;82;21168;-79
2022/11/02 03:26:47;;;;;;;36.50;22.67;;;;;;;5.77;64.40;99691.42;1693323;82;21121;-78
2022/11/02 03:29:29;;;;;;;54.77;33.98;;;;;;;5.68;64.75;99690.47;1684055;82;21109;-76
2022/11/02 03:32:12;;;;;;;47.27;32.10;;;;;;;5.63;64.39;99690.04;1696383;82;21101;-79
2022/11/02 03:34:45;;;;;;;54.48;35.95;;;;;;;5.65;64.02;99684.14;1693613;82;21046;-78
2022/11/02 03:37:32;;;;;;;48.65;33.70;;;;;;;5.71;63.80;99684.41;1703845;82;21831;-79
2022/11/02 03:40:17;;;;;;;47.78;32.55;;;;;;;5.79;63.54;99685.53;1704950;81;21005;-79
2022/11/02 03:42:44;;;;;;;48.20;27.90;;;;;;;5.84;63.37;99682.00;1721220;81;21072;-80
2022/11/02 03:45:17;;;;;;;40.40;25.92;;;;;;;5.90;63.47;99679.63;1739597;82;21085;-81
2022/11/02 03:47:48;;;;;;;40.75;27.85;;;;;;;5.93;63.94;99682.49;1716505;82;21010;-79
2022/11/02 03:50:19;;;;;;;39.18;25.77;;;;;;;5.88;64.33;99674.16;1718304;83;21090;-77
2022/11/02 03:52:47;;;;;;;39.38;26.80;;;;;;;5.88;64.58;99681.58;1709283;81;21104;-81
2022/11/02 03:55:30;;;;;;;47.50;29.18;;;;;;;5.83;64.90;99671.95;1704802;81;21112;-81
2022/11/02 03:57:58;;;;;;;49.73;29.18;;;;;;;5.78;65.00;99670.70;1723300;81;21054;-80
2022/11/02 04:00:27;;;;;;;46.42;27.75;;;;;;;5.74;65.22;99674.56;1727488;83;21019;-80
2022/11/02 04:03:01;;;;;;;39.95;27.40;;;;;;;5.73;65.33;99673.73;1723503;81;21536;-80
2022/11/02 04:05:33;;;;;;;43.52;26.55;;;;;;;5.72;65.58;99665.50;1710818;81;21096;-81
2022/11/02 04:08:20;;;;;;;40.52;26.20;;;;;;;5.69;65.83;99665.27;1710580;81;21486;-85
2022/11/02 04:16:18;;;;;;;36.95;21.65;;;;;;;5.86;63.15;99658.47;1713613;81;21232;-79
2022/11/02 04:21:30;;;;;;;28.80;18.70;;;;;;;6.05;62.33;99655.02;1709999;81;21002;-78
2022/11/02 04:26:45;;;;;;;46.13;28.77;;;;;;;6.23;62.57;99660.39;1715268;81;21072;-78
2022/11/02 04:29:12;;;;;;;47.05;29.82;;;;;;;6.29;63.39;99651.91;1716835;81;21093;-79
2022/11/02 04:31:40;;;;;;;45.38;29.85;;;;;;;6.32;64.01;99653.45;1714295;81;20966;-80
2022/11/02 04:34:09;;;;;;;54.50;30.52;;;;;;;6.32;64.39;99653.45;1705969;81;21069;-81
2022/11/02 04:36:36;;;;;;;55.45;30.30;;;;;;;6.35;64.73;99653.14;1704047;81;21057;-79
2022/11/02 04:39:03;;;;;;;40.05;24.10;;;;;;;6.37;64.87;99649.87;1700569;81;21078;-79
2022/11/02 04:41:40;;;;;;;32.85;20.35;;;;;;;6.40;64.47;99649.59;1681994;82;21449;-77
2022/11/02 04:44:12;;;;;;;35.98;21.23;;;;;;;6.42;62.94;99637.58;1677622;82;21537;-79
2022/11/02 04:46:39;;;;;;;34.30;19.10;;;;;;;6.44;61.75;99633.81;1684880;82;21086;-78
2022/11/02 04:49:10;;;;;;;31.62;19.82;;;;;;;6.45;61.13;99634.64;1686639;83;21022;-78
2022/11/02 04:51:41;;;;;;;32.80;20.10;;;;;;;6.44;60.74;99631.67;1682428;82;21498;-77
2022/11/02 04:54:10;;;;;;;37.80;21.17;;;;;;;6.42;60.74;99629.17;1699944;82;21046;-78
2022/11/02 04:56:37;;;;;;;35.60;19.42;;;;;;;6.41;60.74;99627.52;1689979;83;21074;-78
2022/11/02 04:59:05;;;;;;;31.05;18.52;;;;;;;6.40;60.51;99627.16;1675861;82;21086;-81
2022/11/02 05:01:34;;;;;;;36.15;19.52;;;;;;;6.39;60.62;99632.58;1687814;82;21011;-81
2022/11/02 05:04:03;;;;;;;33.08;19.62;;;;;;;6.39;60.61;99629.45;1676920;83;20991;-79
2022/11/02 05:06:31;;;;;;;33.98;20.45;;;;;;;6.39;60.66;99625.98;1694667;82;21216;-81
2022/11/02 05:08:59;;;;;;;29.27;18.77;;;;;;;6.38;60.75;99627.80;1688939;82;21051;-81
2022/11/02 05:11:26;;;;;;;34.50;20.30;;;;;;;6.37;60.75;99626.13;1699752;82;21034;-81
2022/11/02 05:13:54;;;;;;;31.30;19.62;;;;;;;6.36;60.81;99617.88;1679526;82;21144;-81
2022/11/02 05:16:22;;;;;;;36.65;20.88;;;;;;;6.37;60.76;99616.06;1684681;82;21082;-80
2022/11/02 05:18:51;;;;;;;33.45;21.50;;;;;;;6.37;60.75;99614.25;1691521;82;21141;-80
2022/11/02 05:21:19;;;;;;;33.65;20.77;;;;;;;6.39;60.75;99614.94;1688685;82;21023;-82
2022/11/02 05:23:47;;;;;;;39.30;22.22;;;;;;;6.38;60.83;99613.78;1698064;82;21182;-84
2022/11/02 05:26:13;;;;;;;34.75;21.70;;;;;;;6.36;60.92;99612.60;1694432;82;20951;-83
2022/11/02 05:28:43;;;;;;;37.75;20.92;;;;;;;6.34;61.01;99613.23;1684983;82;21063;-80
2022/11/02 05:31:10;;;;;;;37.53;21.87;;;;;;;6.35;61.02;99614.06;1679252;82;21246;-80
2022/11/02 05:33:38;;;;;;;36.77;20.48;;;;;;;6.34;60.94;99618.52;1655986;86;21034;-80
2022/11/02 05:36:08;;;;;;;38.63;22.90;;;;;;;6.34;60.92;99617.20;1668927;83;21121;-79
2022/11/02 05:38:35;;;;;;;34.13;21.95;;;;;;;6.36;60.87;99613.09;1670321;83;21109;-81
2022/11/02 05:41:02;;;;;;;40.60;21.00;;;;;;;6.36;60.84;99620.52;1667630;83;21058;-80
2022/11/02 05:43:30;;;;;;;41.48;21.77;;;;;;;6.35;60.94;99623.30;1671064;85;21864;-80
2022/11/02 05:45:59;;;;;;;32.78;20.97;;;;;;;6.33;61.02;99620.79;1667038;85;21077;-81
2022/11/02 05:48:27;;;;;;;35.28;21.50;;;;;;;6.36;61.08;99627.11;1660567;85;21046;-81
2022/11/02 05:50:58;;;;;;;41.15;22.35;;;;;;;6.38;61.04;99621.20;1661296;83;21060;-82
2022/11/02 05:53:25;;;;;;;32.98;20.88;;;;;;;6.42;61.01;99617.80;1664949;83;21058;-84
2022/11/02 05:55:57;;;;;;;35.17;22.32;;;;;;;6.45;60.95;99625.41;1665244;85;21106;-84
2022/11/02 05:58:24;;;;;;;46.35;30.82;;;;;;;6.48;60.85;99628.59;1641365;85;21022;-84
2022/11/02 06:00:50;;;;;;;43.58;24.57;;;;;;;6.54;60.71;99629.00;1657192;83;21530;-77
2022/11/02 06:03:17;;;;;;;42.95;26.12;;;;;;;6.57;60.65;99632.68;1665225;85;21049;-80
2022/11/02 06:05:43;;;;;;;48.80;26.97;;;;;;;6.62;60.67;99633.05;1662186;84;21162;-80
2022/11/02 06:08:10;;;;;;;46.98;25.62;;;;;;;6.69;60.55;99635.47;1664597;83;21240;-82
2022/11/02 06:10:41;;;;;;;42.88;26.45;;;;;;;6.76;60.35;99641.84;1659746;83;21058;-79
2022/11/02 06:13:06;;;;;;;41.95;26.62;;;;;;;6.80;60.30;99640.56;1662219;83;21197;-80
2022/11/02 06:15:34;;;;;;;49.75;28.57;;;;;;;6.85;60.05;99639.61;1663264;83;21030;-80
2022/11/02 06:18:01;;;;;;;51.33;27.27;;;;;;;6.91;59.97;99646.62;1675212;83;20983;-83
2022/11/02 06:20:29;;;;;;;52.65;30.10;;;;;;;6.97;59.98;99651.30;1678257;83;21018;-80
2022/11/02 06:22:56;;;;;;;54.60;31.33;;;;;;;7.06;59.92;99650.43;1667200;83;21280;-82
2022/11/02 06:25:22;;;;;;;53.65;30.43;;;;;;;7.14;59.69;99645.23;1674902;85;21432;-80
2022/11/02 06:27:55;;;;;;;64.27;33.38;;;;;;;7.21;59.59;99650.77;1667200;83;21060;-81
2022/11/02 06:30:23;;;;;;;49.25;31.48;;;;;;;7.25;59.38;99637.09;1660844;85;21070;-83
2022/11/02 06:32:52;;;;;;;56.23;31.45;;;;;;;7.32;59.33;99641.78;1676882;85;21148;-82
2022/11/02 06:35:20;;;;;;;49.63;31.75;;;;;;;7.38;59.31;99643.35;1654187;85;21117;-83
2022/11/02 06:37:47;;;;;;;54.00;28.92;;;;;;;7.46;59.21;99643.92;1667116;83;21071;-82
2022/11/02 06:40:14;;;;;;;55.63;29.42;;;;;;;7.56;59.18;99642.53;1672725;84;21011;-83
2022/11/02 06:42:41;;;;;;;49.33;28.52;;;;;;;7.64;59.00;99643.41;1660024;85;21049;-83
2022/11/02 06:45:09;;;;;;;50.90;28.17;;;;;;;7.75;58.92;99647.66;1676789;83;22466;-83
2022/11/02 06:47:37;;;;;;;57.45;27.42;;;;;;;7.90;58.80;99645.78;1659311;85;21644;-82
2022/11/02 06:50:05;;;;;;;44.48;26.60;;;;;;;8.02;58.68;99648.04;1671034;83;21067;-81
2022/11/02 06:52:32;;;;;;;38.67;24.30;;;;;;;8.12;58.58;99653.23;1676262;83;21050;-81
2022/11/02 06:55:00;;;;;;;38.42;22.58;;;;;;;8.19;58.41;99653.44;1678053;83;21514;-79
2022/11/02 06:57:27;;;;;;;41.85;23.38;;;;;;;8.26;58.17;99655.80;1676376;83;21102;-81
2022/11/02 06:59:54;;;;;;;35.78;20.88;;;;;;;8.33;58.08;99656.03;1679119;83;21073;-82
2022/11/02 07:02:20;;;;;;;33.90;20.75;;;;;;;8.41;57.95;99655.61;1675561;83;20992;-81
2022/11/02 07:04:50;;;;;;;32.63;22.02;;;;;;;8.50;57.82;99656.97;1678528;85;21042;-80
2022/11/02 07:07:17;;;;;;;35.20;21.97;;;;;;;8.59;57.56;99659.50;1658075;85;21097;-80
2022/11/02 07:09:46;;;;;;;32.73;21.02;;;;;;;8.65;57.59;99661.55;1691512;83;21147;-80
2022/11/02 07:12:12;;;;;;;35.95;20.77;;;;;;;8.75;57.60;99661.91;1699391;83;21079;-81
2022/11/02 07:17:42;;;;;;;32.75;20.60;;;;;;;8.99;57.16;99663.34;1794330;79;28140;-80
2022/11/02 07:20:10;;;;;;;35.75;21.73;;;;;;;9.03;57.05;99666.00;1771548;80;21049;-78
2022/11/02 07:22:37;;;;;;;35.85;22.55;;;;;;;9.14;56.93;99664.89;1774607;80;21143;-79
2022/11/02 07:25:06;;;;;;;35.52;21.60;;;;;;;9.25;56.64;99662.42;1775740;80;20958;-79
2022/11/02 07:27:38;;;;;;;32.58;21.25;;;;;;;9.31;56.55;99663.60;1774321;80;21108;-79
2022/11/02 07:30:07;;;;;;;31.65;20.77;;;;;;;9.37;56.47;99663.80;1774156;80;21010;-79
2022/11/02 07:32:42;;;;;;;35.55;21.50;;;;;;;9.44;56.25;99656.86;1771865;80;21374;-79
2022/11/02 07:35:13;;;;;;;34.67;22.55;;;;;;;9.52;56.21;99659.17;1718842;82;21170;-80
2022/11/02 07:37:40;;;;;;;29.48;19.80;;;;;;;9.62;56.12;99659.38;1719541;83;21140;-81
2022/11/02 07:40:09;;;;;;;27.77;20.08;;;;;;;9.73;55.77;99658.70;1713996;82;20990;-82
2022/11/02 07:42:45;;;;;;;32.63;20.05;;;;;;;9.81;55.74;99652.08;1719188;82;21014;-82
2022/11/02 07:45:12;;;;;;;35.20;19.95;;;;;;;9.93;55.62;99653.42;1713016;83;21133;-80
2022/11/02 07:47:45;;;;;;;28.62;18.95;;;;;;;10.03;55.45;99648.77;1713210;82;21782;-78
2022/11/02 07:50:14;;;;;;;36.15;20.57;;;;;;;10.16;55.20;99648.27;1717514;82;21041;-78
2022/11/02 07:52:48;;;;;;;29.87;19.35;;;;;;;10.26;54.92;99641.45;1715419;82;21042;-76
2022/11/02 07:55:20;;;;;;;27.00;18.12;;;;;;;10.34;54.90;99645.45;1721658;82;21034;-77
2022/11/02 07:58:03;;;;;;;31.37;20.30;;;;;;;10.48;54.69;99640.44;1712980;82;21037;-77
2022/11/02 08:00:33;;;;;;;37.58;24.47;;;;;;;10.59;54.39;99641.41;1718798;82;21229;-76
2022/11/02 08:03:01;;;;;;;33.55;22.87;;;;;;;10.71;54.05;99643.20;1717485;82;21077;-78
2022/11/02 08:05:28;;;;;;;29.95;21.35;;;;;;;10.82;53.90;99644.98;1738839;81;21157;-77
2022/11/02 08:08:02;;;;;;;32.48;21.05;;;;;;;10.98;53.59;99645.40;1697112;83;21038;-76
2022/11/02 08:10:31;;;;;;;32.73;19.90;;;;;;;11.15;53.30;99646.67;1719448;81;21081;-77
2022/11/02 08:12:58;;;;;;;29.65;19.87;;;;;;;11.29;53.09;99644.58;1736000;81;21255;-74
2022/11/02 08:15:25;;;;;;;24.80;19.70;;;;;;;11.44;52.80;99644.67;1749030;81;21064;-75
2022/11/02 08:18:06;;;;;;;27.05;19.52;;;;;;;11.57;52.37;99643.59;1698953;83;21068;-76
2022/11/02 08:20:35;;;;;;;28.05;20.17;;;;;;;11.66;52.16;99647.52;1754187;80;21041;-75
2022/11/02 08:23:02;;;;;;;29.95;20.50;;;;;;;11.77;51.89;99645.26;1766671;80;21125;-76
2022/11/02 08:25:29;;;;;;;31.00;19.77;;;;;;;11.85;51.68;99643.03;1753011;80;21536;-76
2022/11/02 08:27:58;;;;;;;29.77;20.57;;;;;;;11.93;51.33;99644.33;1743436;80;21040;-75
2022/11/02 08:30:28;;;;;;;27.82;19.15;;;;;;;12.03;51.53;99637.42;1753691;79;21176;-75
2022/11/02 08:32:55;;;;;;;30.60;19.27;;;;;;;12.20;51.26;99640.77;1757078;80;21527;-74
2022/11/02 08:35:23;;;;;;;28.42;20.40;;;;;;;12.38;51.15;99639.94;1746412;80;21041;-74
2022/11/02 08:37:55;;;;;;;28.07;19.45;;;;;;;12.62;50.81;99640.67;1748004;80;21169;-81
2022/11/02 08:40:24;;;;;;;29.07;19.87;;;;;;;12.82;50.29;99642.27;1754682;80;21029;-76
2022/11/02 08:43:06;;;;;;;25.37;18.90;;;;;;;13.00;49.99;99639.23;1748550;80;21037;-76
2022/11/02 08:45:35;;;;;;;;;;;;;;;13.21;49.70;99641.09;1769172;80;21047;-75
2022/11/02 08:48:02;;;;;;;34.55;19.52;;;;;;;13.33;49.23;99638.83;1752414;80;20172;-75
2022/11/02 08:50:29;;;;;;;30.08;20.50;;;;;;;13.44;49.42;99632.97;1747942;80;21617;-76
2022/11/02 08:52:57;;;;;;;27.62;19.62;;;;;;;13.67;49.02;99627.45;1745812;80;21058;-83
2022/11/02 08:55:24;;;;;;;28.17;19.65;;;;;;;14.01;48.69;99628.58;1731497;82;21061;-82
2022/11/02 08:57:52;;;;;;;28.25;20.32;;;;;;;14.44;47.64;99627.13;1764308;80;21002;-82
2022/11/02 09:00:23;;;;;;;30.95;20.55;;;;;;;14.74;47.17;99622.92;1763004;80;22062;-73
2022/11/02 09:03:02;;;;;;;32.83;22.25;;;;;;;15.19;46.63;99620.63;1742787;80;21109;-74
2022/11/02 09:05:33;;;;;;;24.80;19.20;;;;;;;15.84;45.88;99618.31;1758939;80;21190;-76
2022/11/02 09:08:02;;;;;;;29.15;21.20;;;;;;;16.63;44.20;99607.69;1766648;80;21128;-75
2022/11/02 09:10:30;;;;;;;32.48;20.85;;;;;;;17.10;43.40;99614.56;1767351;80;21148;-75
2022/11/02 09:13:01;;;;;;;31.73;21.80;;;;;;;17.69;42.94;99608.54;1764646;80;21037;-73
2022/11/02 09:15:29;;;;;;;30.10;20.77;;;;;;;18.49;41.72;99604.34;1748221;80;21779;-78
2022/11/02 09:17:57;;;;;;;27.70;20.60;;;;;;;19.21;40.29;99608.56;1690584;82;21022;-74
2022/11/02 09:20:24;;;;;;;32.05;22.40;;;;;;;19.57;39.73;99607.36;1765535;80;21037;-76
2022/11/02 09:22:51;;;;;;;28.42;22.13;;;;;;;20.02;39.27;99601.48;1754403;80;21509;-73
2022/11/02 09:25:19;;;;;;;26.65;21.40;;;;;;;20.65;38.83;99599.11;1750294;80;21040;-76
2022/11/02 09:27:46;;;;;;;29.80;21.68;;;;;;;21.34;37.35;99599.97;1758852;80;21089;-74
2022/11/02 09:30:13;;;;;;;24.65;20.65;;;;;;;21.75;36.90;99606.11;1726119;80;21010;-74
2022/11/02 09:32:39;;;;;;;25.65;20.32;;;;;;;22.34;36.32;99602.16;1751230;80;21116;-74
2022/11/02 09:35:08;;;;;;;29.63;21.90;;;;;;;23.06;35.74;99598.48;1718147;82;21084;-75
2022/11/02 09:37:35;;;;;;;22.55;19.98;;;;;;;23.69;34.68;99602.10;1768386;80;21061;-74
2022/11/02 09:40:04;;;;;;;27.17;21.23;;;;;;;24.25;33.85;99597.66;1765343;80;21824;-75
2022/11/02 09:43:02;;;;;;;23.45;19.42;;;;;;;24.60;33.10;99591.63;1751464;80;21045;-75
2022/11/02 09:45:32;;;;;;;22.52;20.05;;;;;;;24.83;33.05;99597.16;1748470;80;21050;-77
2022/11/02 09:48:17;;;;;;;25.68;19.75;;;;;;;25.37;32.50;99595.19;1741730;80;21015;-73
2022/11/02 09:51:11;;;;;;;25.45;19.85;;;;;;;25.80;32.05;99595.20;1715546;82;21042;-74
2022/11/02 09:53:47;;;;;;;;;;;;;;;26.16;31.71;99594.39;1744197;80;21541;-73
2022/11/02 09:56:16;;;;;;;22.20;17.48;;;;;;;26.56;30.93;99586.67;1755599;80;20146;-74
2022/11/02 09:58:47;;;;;;;22.52;18.20;;;;;;;26.64;30.77;99588.03;1766102;80;21506;-73
2022/11/02 10:01:28;;;;;;;25.70;19.05;;;;;;;26.85;30.60;99580.03;1766518;80;21084;-77
2022/11/02 10:04:15;;;;;;;27.15;21.57;;;;;;;27.21;30.45;99583.10;1708740;82;22049;-75
2022/11/02 10:06:45;;;;;;;29.57;22.45;;;;;;;27.56;30.02;99579.33;1758020;80;21319;-79
2022/11/02 10:09:28;;;;;;;29.42;23.57;;;;;;;27.91;29.69;99586.17;1747514;80;21078;-77
2022/11/02 10:12:14;;;;;;;27.67;22.87;;;;;;;28.18;29.55;99585.64;1734381;80;21081;-76
2022/11/02 10:15:02;;;;;;;28.23;22.90;;;;;;;28.33;29.25;99578.65;1700883;83;21046;-75
2022/11/02 10:17:35;;;;;;;26.68;23.85;;;;;;;28.34;29.36;99575.39;1768007;80;21030;-72
2022/11/02 10:20:06;;;;;;;28.60;22.25;;;;;;;28.44;29.18;99579.36;1756515;80;21077;-76
2022/11/02 10:22:39;;;;;;;24.85;21.77;;;;;;;28.53;29.08;99580.91;1757592;80;21034;-71
2022/11/02 10:25:07;;;;;;;27.98;22.60;;;;;;;28.70;28.82;99585.34;1772636;80;21544;-77
2022/11/02 10:27:37;;;;;;;25.60;21.73;;;;;;;28.66;28.60;99583.51;1761078;80;21030;-73
2022/11/02 10:30:17;;;;;;;27.73;21.40;;;;;;;28.60;28.67;99586.29;1760039;80;21090;-74
2022/11/02 10:32:45;;;;;;;27.45;22.90;;;;;;;28.53;28.33;99587.22;1755920;80;21550;-75
2022/11/02 10:35:26;;;;;;;24.77;22.17;;;;;;;28.22;28.59;99582.06;1748178;80;21053;-75
2022/11/02 10:38:02;;;;;;;24.37;21.35;;;;;;;27.62;28.90;99584.20;1764222;80;21080;-76
2022/11/02 10:41:01;;;;;;;28.35;23.77;;;;;;;27.21;29.33;99577.65;1763178;80;21028;-75
2022/11/02 10:44:02;;;;;;;26.17;23.35;;;;;;;26.90;29.48;99583.27;1761994;80;21106;-75
2022/11/02 10:46:49;;;;;;;28.83;22.93;;;;;;;26.61;29.79;99576.32;1756347;80;22284;-76
2022/11/02 10:49:30;;;;;;;28.30;21.50;;;;;;;26.56;29.94;99576.30;1762923;80;21022;-75
2022/11/02 10:52:02;;;;;;;28.95;22.17;;;;;;;26.75;29.86;99577.34;1762011;80;21070;-75
2022/11/02 10:54:31;;;;;;;24.07;21.25;;;;;;;27.13;29.69;99580.42;1737974;80;21108;-75
2022/11/02 10:57:04;;;;;;;25.65;21.85;;;;;;;27.42;29.49;99586.55;1724688;82;21046;-83
2022/11/02 10:59:31;;;;;;;26.02;21.25;;;;;;;27.40;29.18;99584.09;1757944;80;22113;-81
2022/11/02 11:02:03;;;;;;;30.45;23.18;;;;;;;27.16;29.40;99583.96;1727003;80;21006;-81
2022/11/02 11:04:32;;;;;;;28.27;22.62;;;;;;;27.02;29.62;99582.41;1765418;80;21459;-81
2022/11/02 11:07:14;;;;;;;26.33;22.37;;;;;;;26.79;29.61;99577.08;1763618;80;21089;-82
2022/11/02 11:09:52;;;;;;;26.82;21.33;;;;;;;26.54;29.75;99581.20;1762774;80;21147;-83
2022/11/02 11:12:32;;;;;;;27.75;22.37;;;;;;;26.34;30.05;99580.18;1774019;80;21120;-82
2022/11/02 11:15:00;;;;;;;26.55;22.13;;;;;;;26.29;30.13;99581.58;1762217;80;21117;-83
2022/11/02 11:17:35;;;;;;;26.85;21.77;;;;;;;26.55;30.18;99585.58;1758128;80;21533;-76
2022/11/02 11:20:04;;;;;;;26.97;21.45;;;;;;;26.96;29.93;99587.59;1742841;80;21479;-77
2022/11/02 11:22:35;;;;;;;24.60;21.48;;;;;;;27.29;29.54;99582.53;1762555;80;21537;-76
2022/11/02 11:25:22;;;;;;;25.92;21.37;;;;;;;27.51;29.28;99575.86;1751519;80;21257;-76
2022/11/02 11:27:53;;;;;;;27.82;22.80;;;;;;;27.70;29.13;99571.33;1743551;80;21490;-76
2022/11/02 11:30:32;;;;;;;28.80;21.95;;;;;;;27.81;28.94;99572.84;1764080;80;21038;-82
2022/11/02 11:33:04;;;;;;;27.75;21.37;;;;;;;27.87;29.02;99569.52;1773593;80;21030;-85
2022/11/02 11:35:37;;;;;;;24.70;21.45;;;;;;;28.15;28.82;99564.39;1705523;80;21124;-85
2022/11/02 11:38:11;;;;;;;27.05;22.00;;;;;;;28.41;28.60;99564.38;1759610;80;21506;-78
2022/11/02 11:40:38;;;;;;;31.17;21.80;;;;;;;28.53;28.36;99564.52;1755616;80;21019;-76
2022/11/02 11:43:13;;;;;;;24.92;21.02;;;;;;;28.33;28.47;99563.62;1742331;80;21121;-74
2022/11/02 11:45:39;;;;;;;26.85;21.77;;;;;;;27.85;28.75;99564.38;1762701;80;21071;-75
2022/11/02 11:48:40;;;;;;;31.85;21.25;;;;;;;27.43;29.04;99563.64;1745637;80;21014;-75
2022/11/02 11:51:28;;;;;;;27.32;21.12;;;;;;;27.13;29.30;99561.34;1743485;80;21121;-73
2022/11/02 11:54:26;;;;;;;27.32;22.98;;;;;;;26.92;29.54;99565.28;1759169;80;21031;-76
2022/11/02 11:56:55;;;;;;;27.90;21.48;;;;;;;26.90;29.62;99564.19;1765468;80;21069;-73
2022/11/02 11:59:27;;;;;;;25.77;20.82;;;;;;;26.89;29.55;99562.58;1762599;80;21058;-74